EGKB/BQH METAR and TAF weather

Enter ICAO airport designator
Station Type Date Time Source
EGKB METAR 2018/10/22 16:50 UTC NOAA

EGKB 221650Z 33004KT CAVOK 10/03 Q1037


Station Type Date Time Source
EGKB Decoded METAR 2018/10/22 16:50 UTC NOAA

Biggin Hill , United Kingdom (EGKB) 51-19N 000-02E
Oct 22, 2018 - 12:50 PM EDT / 2018.10.22 1650 UTC
Wind: from the NNW (330 degrees) at 5 MPH (4 KT):0
Visibility: greater than 7 mile(s):0
Temperature: 50 F (10 C)
Dew Point: 37 F (3 C)
Relative Humidity: 61%
Pressure (altimeter): 30.62 in. Hg (1037 hPa)
ob: EGKB 221650Z 33004KT CAVOK 10/03 Q1037
cycle: 17

Station Type Date Time Source
EGKB TAF 2018/10/15 23:27 UTC NOAA

TAF TAF EGKB 152321Z 1523/1622 CNL


Example: see airport list